Time;durP1;ratioP1;P1;durP2;ratioP2;P2;SDS_P1;SDS_P2;PMS_P1;PMS_P2;Temp;Humidity;BMP_temperature;BMP_pressure;BME280_temperature;BME280_humidity;BME280_pressure;Samples;Min_cycle;Max_cycle;Signal;HPM_P1;HPM_P2
2023/08/07 00:00:43;;;;;;;3.93;1.40;;;;;22.10;99971.00;;;;2071305;28;20217;-58
2023/08/07 00:01:43;;;;;;;1.53;1.20;;;;;22.10;99969.00;;;;2069820;28;20826;-57
2023/08/07 00:02:44;;;;;;;2.80;1.37;;;;;22.10;99967.00;;;;2074165;28;20213;-56
2023/08/07 00:03:44;;;;;;;4.80;1.40;;;;;22.10;99978.00;;;;2061919;28;20229;-57
2023/08/07 00:04:44;;;;;;;1.60;1.10;;;;;22.10;99969.00;;;;2070087;28;20269;-57
2023/08/07 00:05:46;;;;;;;2.50;1.33;;;;;22.10;99973.00;;;;2069287;28;20345;-56
2023/08/07 00:06:46;;;;;;;1.67;1.23;;;;;22.10;99973.00;;;;2070108;28;20202;-57
2023/08/07 00:07:47;;;;;;;1.60;1.10;;;;;22.10;99981.00;;;;2069168;28;20700;-58
2023/08/07 00:08:47;;;;;;;1.50;1.13;;;;;22.10;99978.00;;;;2058410;28;21433;-56
2023/08/07 00:09:47;;;;;;;2.10;1.13;;;;;22.10;99974.00;;;;2069521;28;20376;-58
2023/08/07 00:10:48;;;;;;;2.50;1.50;;;;;22.10;99974.00;;;;2068927;28;20229;-57
2023/08/07 00:11:48;;;;;;;1.57;1.00;;;;;22.10;99971.00;;;;2069925;28;20304;-55
2023/08/07 00:12:48;;;;;;;3.57;1.50;;;;;22.10;99968.00;;;;2068942;28;20309;-57
2023/08/07 00:13:49;;;;;;;1.77;1.00;;;;;22.10;100018.00;;;;2059810;28;20218;-58
2023/08/07 00:14:52;;;;;;;1.83;1.20;;;;;22.10;99968.00;;;;2069348;28;20226;-54
2023/08/07 00:15:52;;;;;;;1.98;1.10;;;;;22.10;99970.00;;;;2069014;28;20300;-56
2023/08/07 00:16:53;;;;;;;1.93;1.10;;;;;22.10;99975.00;;;;2069643;28;20687;-56
2023/08/07 00:17:53;;;;;;;2.07;1.00;;;;;22.10;99977.00;;;;2068105;28;20218;-56
2023/08/07 00:18:55;;;;;;;1.90;1.23;;;;;22.10;99978.00;;;;2059350;28;20210;-57
2023/08/07 00:19:56;;;;;;;2.40;1.40;;;;;22.10;99979.00;;;;2068490;28;20221;-56
2023/08/07 00:20:56;;;;;;;2.07;1.13;;;;;22.10;99976.00;;;;2069893;28;20699;-56
2023/08/07 00:21:57;;;;;;;1.47;1.07;;;;;22.10;99980.00;;;;2069299;28;20764;-54
2023/08/07 00:22:57;;;;;;;2.17;1.30;;;;;22.10;99977.00;;;;2069277;28;20218;-55
2023/08/07 00:23:57;;;;;;;1.30;1.10;;;;;22.10;99980.00;;;;2059735;28;20206;-56
2023/08/07 00:24:58;;;;;;;2.30;1.43;;;;;22.10;99983.00;;;;2068653;28;20278;-56
2023/08/07 00:25:58;;;;;;;2.00;1.37;;;;;22.10;99980.00;;;;2072022;28;20214;-62
2023/08/07 00:26:58;;;;;;;2.07;1.33;;;;;22.10;99980.00;;;;2068769;28;20246;-58
2023/08/07 00:27:59;;;;;;;3.63;1.50;;;;;22.10;100001.00;;;;2069010;28;20217;-54
2023/08/07 00:28:59;;;;;;;3.20;1.20;;;;;22.10;99991.00;;;;2059898;28;20218;-56
2023/08/07 00:29:59;;;;;;;2.10;1.20;;;;;22.10;99990.00;;;;2068236;28;20214;-58
2023/08/07 00:31:00;;;;;;;3.63;1.33;;;;;22.00;99987.00;;;;2068866;28;20221;-57
2023/08/07 00:32:00;;;;;;;1.90;1.23;;;;;22.10;99983.00;;;;2068730;28;20262;-58
2023/08/07 00:33:00;;;;;;;2.70;1.53;;;;;22.10;99982.00;;;;2069459;28;20306;-58
2023/08/07 00:34:02;;;;;;;3.03;1.20;;;;;22.10;99989.00;;;;2061644;28;20222;-58
2023/08/07 00:35:04;;;;;;;4.15;1.67;;;;;22.10;99996.00;;;;2068736;28;20321;-54
2023/08/07 00:36:04;;;;;;;1.95;1.08;;;;;21.80;99986.00;;;;2068822;28;20245;-58
2023/08/07 00:37:05;;;;;;;2.80;1.30;;;;;22.10;99980.00;;;;2069366;28;20601;-57
2023/08/07 00:38:05;;;;;;;4.33;1.27;;;;;22.10;99989.00;;;;2075719;28;20234;-54
2023/08/07 00:39:06;;;;;;;2.70;1.40;;;;;22.10;100002.00;;;;2059341;28;20214;-56
2023/08/07 00:40:08;;;;;;;2.17;1.45;;;;;22.10;99917.00;;;;2069488;28;20301;-54
2023/08/07 00:41:09;;;;;;;2.40;1.30;;;;;22.10;99990.00;;;;2071570;28;20720;-57
2023/08/07 00:42:10;;;;;;;1.52;1.10;;;;;22.10;99989.00;;;;2069931;28;20249;-53
2023/08/07 00:43:10;;;;;;;2.97;1.37;;;;;22.10;99994.00;;;;2068486;28;20218;-56
2023/08/07 00:44:10;;;;;;;2.67;1.70;;;;;22.10;99968.00;;;;2059280;28;20214;-57
2023/08/07 00:45:11;;;;;;;1.67;1.10;;;;;22.10;99997.00;;;;2068840;28;20210;-57
2023/08/07 00:46:11;;;;;;;3.60;1.67;;;;;22.10;99995.00;;;;2068430;28;20225;-57
2023/08/07 00:47:11;;;;;;;2.20;1.43;;;;;22.10;100004.00;;;;2076468;28;20788;-57
2023/08/07 00:48:12;;;;;;;7.73;1.40;;;;;22.10;99996.00;;;;2061332;28;21170;-57
2023/08/07 00:49:12;;;;;;;3.70;1.40;;;;;22.10;100000.00;;;;2066588;28;20691;-58
2023/08/07 00:50:13;;;;;;;3.73;1.50;;;;;22.10;99981.00;;;;2070409;28;20218;-59
2023/08/07 00:51:13;;;;;;;4.80;1.50;;;;;22.10;100004.00;;;;2060913;28;20250;-58
2023/08/07 00:52:13;;;;;;;3.90;1.93;;;;;21.80;99993.00;;;;2063758;28;20218;-58
2023/08/07 00:53:14;;;;;;;3.50;1.60;;;;;22.10;100007.00;;;;2069637;28;20260;-59
2023/08/07 00:54:15;;;;;;;4.60;1.80;;;;;22.10;100008.00;;;;2055554;28;20655;-58
2023/08/07 00:55:15;;;;;;;2.80;1.30;;;;;22.10;100005.00;;;;2059707;28;20215;-58
2023/08/07 00:56:15;;;;;;;2.13;1.50;;;;;22.10;100003.00;;;;2068710;28;20210;-59
2023/08/07 00:57:16;;;;;;;5.20;1.23;;;;;22.10;100027.00;;;;2068014;28;20214;-58
2023/08/07 00:58:16;;;;;;;3.30;1.67;;;;;22.10;100008.00;;;;2040874;28;20220;-58
2023/08/07 00:59:16;;;;;;;3.07;1.53;;;;;22.10;100003.00;;;;2060792;28;20233;-58
2023/08/07 01:00:17;;;;;;;4.23;1.60;;;;;22.10;99998.00;;;;2059726;28;20221;-58
2023/08/07 01:01:17;;;;;;;3.57;1.40;;;;;22.10;100008.00;;;;2052641;28;20208;-58
2023/08/07 01:02:17;;;;;;;11.50;1.53;;;;;22.10;100013.00;;;;2067476;28;20302;-58
2023/08/07 01:03:18;;;;;;;4.87;1.43;;;;;22.10;100014.00;;;;2058728;28;20272;-58
2023/08/07 01:04:18;;;;;;;6.60;2.30;;;;;22.10;100011.00;;;;2068445;28;20369;-58
2023/08/07 01:05:19;;;;;;;2.97;1.70;;;;;22.10;100007.00;;;;2068787;28;20290;-58
2023/08/07 01:06:19;;;;;;;3.23;1.57;;;;;22.10;100012.00;;;;2070454;28;20279;-58
2023/08/07 01:07:20;;;;;;;3.07;1.47;;;;;21.40;100006.00;;;;2070352;28;20292;-58
2023/08/07 01:08:20;;;;;;;2.33;1.40;;;;;22.10;100013.00;;;;2058599;28;20218;-58
2023/08/07 01:09:21;;;;;;;5.33;1.60;;;;;22.10;100019.00;;;;2059677;28;20219;-57
2023/08/07 01:10:30;;;;;;;2.40;1.27;;;;;22.10;100020.00;;;;2060395;28;20686;-57
2023/08/07 01:11:50;;;;;;;4.03;1.52;;;;;22.10;100020.00;;;;2067646;28;20242;-57
2023/08/07 01:12:53;;;;;;;2.72;1.45;;;;;22.00;100004.00;;;;2068497;28;20580;-57
2023/08/07 01:14:15;;;;;;;2.85;1.42;;;;;22.10;100020.00;;;;2049934;28;20214;-57
2023/08/07 01:15:17;;;;;;;3.38;1.10;;;;;22.10;100010.00;;;;2068519;28;20218;-57
2023/08/07 01:16:20;;;;;;;3.00;1.52;;;;;22.10;100019.00;;;;2067876;28;20849;-57
2023/08/07 01:17:22;;;;;;;2.58;1.23;;;;;22.10;100007.00;;;;2060704;28;20223;-57
2023/08/07 01:18:22;;;;;;;2.92;1.33;;;;;22.10;99993.00;;;;2041994;28;20254;-58
2023/08/07 01:19:27;;;;;;;4.00;1.73;;;;;22.00;100023.00;;;;2054558;28;20947;-57
2023/08/07 01:20:27;;;;;;;2.25;1.40;;;;;22.00;99894.00;;;;2060832;28;20237;-58
2023/08/07 01:21:27;;;;;;;2.30;1.40;;;;;22.00;100031.00;;;;2067841;28;20746;-58
2023/08/07 01:22:28;;;;;;;4.67;2.00;;;;;22.10;100019.00;;;;2069310;28;20589;-57
2023/08/07 01:23:28;;;;;;;4.90;1.70;;;;;22.10;100016.00;;;;2058000;28;20225;-57
2023/08/07 01:24:28;;;;;;;2.90;1.50;;;;;22.00;100002.00;;;;2067870;28;20210;-60
2023/08/07 01:25:29;;;;;;;4.30;1.30;;;;;21.70;100016.00;;;;2068643;28;20301;-58
2023/08/07 01:26:29;;;;;;;2.10;1.40;;;;;22.00;100008.00;;;;2071954;28;20213;-58
2023/08/07 01:27:39;;;;;;;2.50;1.50;;;;;22.00;100013.00;;;;2062547;28;20231;-58
2023/08/07 01:28:44;;;;;;;3.40;1.45;;;;;22.00;100062.00;;;;2054570;28;20261;-57
2023/08/07 01:29:44;;;;;;;3.35;1.50;;;;;22.00;100020.00;;;;2076428;28;20649;-57
2023/08/07 01:30:48;;;;;;;2.97;1.80;;;;;22.00;100003.00;;;;2072063;28;20225;-57
2023/08/07 01:31:48;;;;;;;2.30;1.60;;;;;22.00;100015.00;;;;2068538;28;20301;-57
2023/08/07 01:33:01;;;;;;;2.07;1.40;;;;;22.00;100019.00;;;;2059984;28;20222;-58
2023/08/07 01:34:06;;;;;;;2.42;1.42;;;;;22.00;100019.00;;;;2048406;28;20243;-58
2023/08/07 01:35:06;;;;;;;2.00;1.20;;;;;22.00;100015.00;;;;2066373;28;20259;-57
2023/08/07 01:36:07;;;;;;;1.93;1.43;;;;;22.00;100016.00;;;;2067127;28;20210;-57
2023/08/07 01:37:07;;;;;;;2.10;1.37;;;;;22.00;100013.00;;;;2072184;28;20206;-58
2023/08/07 01:38:08;;;;;;;2.50;1.60;;;;;22.00;100010.00;;;;2074425;28;20721;-57
2023/08/07 01:39:08;;;;;;;4.73;1.57;;;;;22.00;100018.00;;;;2056229;28;20257;-58
2023/08/07 01:40:11;;;;;;;3.30;1.70;;;;;22.00;100014.00;;;;2059491;28;20790;-57
2023/08/07 01:41:11;;;;;;;2.13;1.25;;;;;22.00;99992.00;;;;2068193;28;20886;-57
2023/08/07 01:42:12;;;;;;;2.37;1.60;;;;;22.00;100013.00;;;;2051624;28;20212;-57
2023/08/07 01:43:12;;;;;;;4.03;1.50;;;;;22.00;100012.00;;;;2052182;28;20302;-57
2023/08/07 01:44:12;;;;;;;2.70;1.30;;;;;22.00;100017.00;;;;2058636;28;20214;-57
2023/08/07 01:45:13;;;;;;;4.00;1.40;;;;;22.00;100015.00;;;;2068200;28;20604;-58
2023/08/07 01:46:13;;;;;;;2.70;1.50;;;;;22.00;100014.00;;;;2068721;28;20218;-58
2023/08/07 01:47:13;;;;;;;1.50;1.10;;;;;22.00;100013.00;;;;2068017;28;20214;-58
2023/08/07 01:48:14;;;;;;;3.00;1.50;;;;;22.00;100022.00;;;;2068658;28;20242;-58
2023/08/07 01:49:14;;;;;;;2.27;1.40;;;;;22.00;100024.00;;;;2053917;28;20294;-58
2023/08/07 01:50:15;;;;;;;2.43;1.73;;;;;22.00;100018.00;;;;2069095;28;20225;-57
2023/08/07 01:51:15;;;;;;;2.23;1.40;;;;;22.00;100021.00;;;;2068105;28;20609;-58
2023/08/07 01:52:15;;;;;;;1.93;1.40;;;;;22.00;100020.00;;;;2075815;28;20218;-58
2023/08/07 01:53:16;;;;;;;2.87;1.47;;;;;22.00;100023.00;;;;2063633;28;20209;-58
2023/08/07 01:54:16;;;;;;;2.90;1.40;;;;;22.00;100019.00;;;;2064857;28;20214;-58
2023/08/07 01:55:17;;;;;;;3.20;1.53;;;;;22.00;100013.00;;;;2068578;28;20240;-57
2023/08/07 01:56:17;;;;;;;1.73;1.17;;;;;22.00;100018.00;;;;2067901;28;20206;-56
2023/08/07 01:57:18;;;;;;;2.77;1.43;;;;;22.00;100017.00;;;;2068864;28;25688;-58
2023/08/07 01:58:18;;;;;;;2.13;1.27;;;;;22.00;100029.00;;;;2058161;28;20234;-58
2023/08/07 01:59:18;;;;;;;2.00;1.60;;;;;22.00;100018.00;;;;2068108;28;20225;-56
2023/08/07 02:00:19;;;;;;;1.63;1.07;;;;;22.00;100024.00;;;;2068930;28;20726;-58
2023/08/07 02:01:19;;;;;;;2.10;1.40;;;;;22.00;100023.00;;;;2068245;28;20667;-57
2023/08/07 02:02:20;;;;;;;4.53;1.60;;;;;22.00;100020.00;;;;2068614;28;20214;-57
2023/08/07 02:03:20;;;;;;;4.93;1.60;;;;;22.00;100026.00;;;;2058106;28;20210;-58
2023/08/07 02:04:20;;;;;;;1.90;1.20;;;;;22.00;100024.00;;;;2064577;28;20211;-57
2023/08/07 02:05:21;;;;;;;1.70;1.00;;;;;22.00;100024.00;;;;2068280;28;20583;-57
2023/08/07 02:06:21;;;;;;;1.53;1.17;;;;;22.00;100019.00;;;;2067927;28;20672;-58
2023/08/07 02:07:22;;;;;;;1.87;1.20;;;;;22.00;100039.00;;;;2068784;28;20221;-58
2023/08/07 02:08:22;;;;;;;2.20;1.00;;;;;22.00;100034.00;;;;2058316;28;20223;-57
2023/08/07 02:09:22;;;;;;;2.20;1.17;;;;;22.00;100026.00;;;;2070319;28;20741;-58
2023/08/07 02:10:23;;;;;;;2.80;1.20;;;;;22.00;100027.00;;;;2067914;28;20249;-58
2023/08/07 02:11:23;;;;;;;2.73;1.50;;;;;22.00;100021.00;;;;2069012;28;20230;-58
2023/08/07 02:12:25;;;;;;;2.60;1.30;;;;;22.00;100016.00;;;;2073103;28;20276;-57
2023/08/07 02:13:25;;;;;;;2.15;1.20;;;;;22.00;100029.00;;;;2059161;28;20374;-57
2023/08/07 02:14:26;;;;;;;2.80;1.20;;;;;22.00;100036.00;;;;2076297;28;20221;-57
2023/08/07 02:15:26;;;;;;;2.50;1.20;;;;;22.00;100030.00;;;;2074158;28;20900;-57
2023/08/07 02:16:26;;;;;;;3.00;1.20;;;;;22.00;100010.00;;;;2067895;28;20233;-57
2023/08/07 02:17:38;;;;;;;1.90;1.13;;;;;22.00;100028.00;;;;2061150;28;20321;-57
2023/08/07 02:18:38;;;;;;;2.22;1.17;;;;;22.00;100028.00;;;;2055037;28;20287;-57
2023/08/07 02:19:39;;;;;;;2.70;1.50;;;;;22.00;100030.00;;;;2064054;28;20206;-58
2023/08/07 02:20:39;;;;;;;2.10;1.30;;;;;22.00;100027.00;;;;2072202;28;21035;-57
2023/08/07 02:21:40;;;;;;;3.30;1.50;;;;;22.00;100023.00;;;;2068630;28;20531;-57
2023/08/07 02:22:40;;;;;;;2.47;1.30;;;;;22.00;100025.00;;;;2068379;28;21006;-57
2023/08/07 02:23:41;;;;;;;2.20;1.13;;;;;22.00;100019.00;;;;2059054;28;20241;-57
2023/08/07 02:24:41;;;;;;;2.00;0.90;;;;;22.00;100024.00;;;;2067903;28;20217;-57
2023/08/07 02:25:41;;;;;;;1.87;1.30;;;;;22.00;100031.00;;;;2068330;28;20210;-58
2023/08/07 02:26:42;;;;;;;2.43;1.27;;;;;22.00;100032.00;;;;2068431;28;20206;-57
2023/08/07 02:27:42;;;;;;;1.40;0.90;;;;;22.00;100058.00;;;;2071231;28;20205;-57
2023/08/07 02:28:42;;;;;;;3.00;0.93;;;;;22.00;100031.00;;;;2062323;28;20806;-57
2023/08/07 02:29:43;;;;;;;2.60;1.10;;;;;22.00;100034.00;;;;2067862;28;21177;-57
2023/08/07 02:30:48;;;;;;;3.22;1.50;;;;;22.00;100031.00;;;;2068493;28;20797;-58
2023/08/07 02:31:48;;;;;;;1.08;0.85;;;;;22.00;100036.00;;;;2067713;28;20758;-57
2023/08/07 02:32:49;;;;;;;2.50;1.00;;;;;22.00;100034.00;;;;2068667;28;20225;-57
2023/08/07 02:33:49;;;;;;;2.23;1.27;;;;;22.00;100039.00;;;;2059225;28;20234;-57
2023/08/07 02:34:49;;;;;;;2.10;1.20;;;;;22.00;100076.00;;;;2067931;28;20222;-57
2023/08/07 02:35:51;;;;;;;2.30;1.30;;;;;22.00;100049.00;;;;2068652;28;20210;-55
2023/08/07 02:36:51;;;;;;;3.08;1.00;;;;;22.00;100028.00;;;;2067783;28;20221;-56
2023/08/07 02:37:51;;;;;;;1.97;1.00;;;;;22.00;100038.00;;;;2068144;28;20703;-57
2023/08/07 02:38:52;;;;;;;2.77;1.10;;;;;22.00;100032.00;;;;2057735;28;20218;-57
2023/08/07 02:39:53;;;;;;;1.50;0.90;;;;;22.00;100034.00;;;;2068340;28;20220;-57
2023/08/07 02:40:54;;;;;;;2.13;0.90;;;;;22.00;100038.00;;;;2068652;28;20226;-57
2023/08/07 02:41:54;;;;;;;2.30;0.90;;;;;22.00;100039.00;;;;2066552;28;20714;-58
2023/08/07 02:42:54;;;;;;;2.43;0.80;;;;;22.00;100046.00;;;;2071851;28;20728;-57
2023/08/07 02:43:55;;;;;;;1.80;0.90;;;;;22.00;100037.00;;;;2058206;28;20289;-57
2023/08/07 02:44:55;;;;;;;1.50;1.20;;;;;22.00;100018.00;;;;2068546;28;20210;-56
2023/08/07 02:45:56;;;;;;;2.03;1.30;;;;;22.00;100048.00;;;;2066721;28;20298;-57
2023/08/07 02:46:56;;;;;;;1.00;0.80;;;;;22.00;100047.00;;;;2072741;28;20217;-57
2023/08/07 02:47:56;;;;;;;1.43;1.07;;;;;22.00;100045.00;;;;2073692;28;20300;-58
2023/08/07 02:48:57;;;;;;;2.30;0.73;;;;;22.00;100048.00;;;;2057782;28;20214;-58
2023/08/07 02:49:57;;;;;;;2.07;0.97;;;;;22.00;100047.00;;;;2068687;28;20284;-57
2023/08/07 02:50:57;;;;;;;3.00;1.00;;;;;22.00;100048.00;;;;2067720;28;20249;-57
2023/08/07 02:51:58;;;;;;;2.30;1.30;;;;;22.00;100047.00;;;;2073533;28;20217;-56
2023/08/07 02:52:59;;;;;;;1.80;0.90;;;;;22.00;100047.00;;;;2070619;28;20218;-57
2023/08/07 02:53:59;;;;;;;1.42;0.90;;;;;22.00;100048.00;;;;2058705;28;20210;-59
2023/08/07 02:55:00;;;;;;;1.47;1.00;;;;;22.00;100048.00;;;;2068387;28;20210;-58
2023/08/07 02:56:00;;;;;;;2.13;1.00;;;;;22.00;100048.00;;;;2067597;28;20202;-57
2023/08/07 02:57:00;;;;;;;1.60;1.20;;;;;22.00;100046.00;;;;2068447;28;20213;-57
2023/08/07 02:58:01;;;;;;;1.70;1.00;;;;;22.00;100047.00;;;;2066171;28;20206;-57
2023/08/07 02:59:01;;;;;;;2.70;1.20;;;;;22.00;100042.00;;;;2057471;28;20708;-58
2023/08/07 03:00:02;;;;;;;1.40;0.93;;;;;22.00;100047.00;;;;2069117;28;20865;-57
2023/08/07 03:01:06;;;;;;;1.85;1.00;;;;;22.00;100045.00;;;;2068531;28;20245;-57
2023/08/07 03:02:06;;;;;;;2.08;1.08;;;;;22.00;100045.00;;;;2062237;28;20222;-58
2023/08/07 03:03:06;;;;;;;1.67;1.33;;;;;22.00;100047.00;;;;2073559;28;20220;-57
2023/08/07 03:04:07;;;;;;;2.63;1.33;;;;;22.00;100046.00;;;;2057129;28;20214;-58
2023/08/07 03:05:08;;;;;;;2.13;1.03;;;;;22.00;100050.00;;;;2064167;28;20206;-57
2023/08/07 03:06:08;;;;;;;1.50;1.20;;;;;22.00;100045.00;;;;2068387;28;20581;-57
2023/08/07 03:07:08;;;;;;;1.57;1.10;;;;;22.00;100049.00;;;;2067963;28;20476;-58
2023/08/07 03:08:09;;;;;;;1.97;1.00;;;;;22.00;100052.00;;;;2067737;28;20206;-57
2023/08/07 03:09:10;;;;;;;2.47;1.30;;;;;21.90;100044.00;;;;2057567;28;20313;-57
2023/08/07 03:10:10;;;;;;;1.83;1.20;;;;;22.00;100047.00;;;;2067153;28;20290;-57
2023/08/07 03:11:11;;;;;;;3.03;1.27;;;;;22.00;100064.00;;;;2067013;28;20217;-58
2023/08/07 03:12:11;;;;;;;1.40;1.00;;;;;22.00;100050.00;;;;2066757;28;20207;-58
2023/08/07 03:13:12;;;;;;;2.80;1.40;;;;;22.00;100059.00;;;;2068522;28;20719;-57
2023/08/07 03:14:12;;;;;;;3.23;1.40;;;;;22.00;100052.00;;;;2065108;28;20283;-57
2023/08/07 03:15:13;;;;;;;2.10;1.20;;;;;22.00;99836.00;;;;2072593;28;20263;-58
2023/08/07 03:16:13;;;;;;;1.23;0.90;;;;;22.00;100053.00;;;;2067225;28;20665;-58
2023/08/07 03:17:13;;;;;;;1.93;1.00;;;;;21.90;100053.00;;;;2067628;28;20602;-57
2023/08/07 03:18:14;;;;;;;2.57;1.33;;;;;21.90;100049.00;;;;2067516;28;20222;-57
2023/08/07 03:19:14;;;;;;;2.47;1.27;;;;;22.00;100054.00;;;;2058178;28;20249;-57
2023/08/07 03:20:14;;;;;;;1.60;1.20;;;;;22.00;100051.00;;;;2068286;28;20241;-57
2023/08/07 03:21:15;;;;;;;2.17;1.30;;;;;22.00;100055.00;;;;2068137;28;20214;-58
2023/08/07 03:22:15;;;;;;;1.70;1.27;;;;;22.00;100047.00;;;;2068700;28;20588;-57
2023/08/07 03:23:15;;;;;;;3.17;1.40;;;;;22.00;100054.00;;;;2068346;28;20240;-60
2023/08/07 03:24:16;;;;;;;1.80;0.90;;;;;22.00;100061.00;;;;2060869;28;20288;-57
2023/08/07 03:25:16;;;;;;;2.23;1.20;;;;;22.00;100058.00;;;;2066521;28;20214;-57
2023/08/07 03:26:16;;;;;;;1.93;1.17;;;;;22.00;100053.00;;;;2059689;28;20211;-58
2023/08/07 03:27:17;;;;;;;1.57;1.10;;;;;22.00;100058.00;;;;2060705;28;20234;-57
2023/08/07 03:28:17;;;;;;;4.83;1.80;;;;;22.00;100062.00;;;;2060189;28;20280;-57
2023/08/07 03:29:18;;;;;;;1.80;1.30;;;;;22.00;100057.00;;;;2069561;28;20753;-56
2023/08/07 03:30:18;;;;;;;2.03;1.40;;;;;22.00;100053.00;;;;2070151;28;20712;-56
2023/08/07 03:31:18;;;;;;;2.67;1.30;;;;;21.90;100062.00;;;;2069546;28;20302;-57
2023/08/07 03:32:19;;;;;;;1.83;1.30;;;;;22.00;100065.00;;;;2069958;28;20225;-57
2023/08/07 03:33:19;;;;;;;2.23;1.50;;;;;21.90;100059.00;;;;2059514;28;21817;-57
2023/08/07 03:34:19;;;;;;;2.50;1.33;;;;;21.90;100058.00;;;;2085294;28;20311;-57
2023/08/07 03:35:20;;;;;;;2.37;1.40;;;;;21.90;100048.00;;;;2075433;28;20225;-56
2023/08/07 03:36:20;;;;;;;2.13;1.30;;;;;21.90;100059.00;;;;2069561;28;20313;-57
2023/08/07 03:37:20;;;;;;;2.33;1.30;;;;;22.00;100054.00;;;;2069869;28;20222;-56
2023/08/07 03:38:21;;;;;;;2.23;1.30;;;;;21.90;100067.00;;;;2059560;28;20371;-57
2023/08/07 03:39:21;;;;;;;2.10;1.30;;;;;22.00;100061.00;;;;2069521;28;20276;-57
2023/08/07 03:40:21;;;;;;;2.10;1.50;;;;;22.00;100059.00;;;;2071847;28;20221;-57
2023/08/07 03:41:22;;;;;;;2.20;1.40;;;;;21.90;100060.00;;;;2070215;28;20218;-57
2023/08/07 03:42:22;;;;;;;1.90;1.33;;;;;21.90;100059.00;;;;2069359;28;20303;-56
2023/08/07 03:43:22;;;;;;;2.10;1.30;;;;;21.90;100065.00;;;;2061060;28;20225;-56
2023/08/07 03:44:23;;;;;;;2.80;1.43;;;;;21.90;100062.00;;;;2085136;28;20610;-56
2023/08/07 03:45:23;;;;;;;3.63;1.60;;;;;21.50;100057.00;;;;2077764;28;20217;-57
2023/08/07 03:46:23;;;;;;;5.07;1.90;;;;;21.90;100059.00;;;;2069720;28;20233;-56
2023/08/07 03:47:24;;;;;;;2.90;1.37;;;;;21.90;100058.00;;;;2069053;28;20337;-57
2023/08/07 03:48:24;;;;;;;2.50;1.67;;;;;21.90;100057.00;;;;2065992;28;20662;-56
2023/08/07 03:49:25;;;;;;;3.87;1.50;;;;;21.90;100077.00;;;;2060549;28;20223;-56
2023/08/07 03:50:25;;;;;;;3.47;1.80;;;;;21.90;100073.00;;;;2062359;28;20222;-57
2023/08/07 03:51:25;;;;;;;2.53;1.70;;;;;21.90;100068.00;;;;2073381;28;20602;-56
2023/08/07 03:52:26;;;;;;;2.20;1.53;;;;;21.90;100064.00;;;;2069420;28;20575;-57
2023/08/07 03:53:27;;;;;;;3.60;1.58;;;;;21.90;100061.00;;;;2061578;28;20229;-57
2023/08/07 03:54:27;;;;;;;3.97;1.60;;;;;21.90;100062.00;;;;2080286;28;20319;-56
2023/08/07 03:55:27;;;;;;;3.43;1.60;;;;;21.90;100068.00;;;;2084079;28;20209;-56
2023/08/07 03:56:28;;;;;;;2.27;1.63;;;;;21.90;100068.00;;;;2068938;28;20218;-56
2023/08/07 03:57:28;;;;;;;1.80;1.40;;;;;21.90;100065.00;;;;2069874;28;20317;-56
2023/08/07 03:58:29;;;;;;;2.67;1.80;;;;;21.90;100068.00;;;;2059118;28;20229;-56
2023/08/07 03:59:29;;;;;;;3.80;1.80;;;;;21.90;100055.00;;;;2069232;28;20221;-56
2023/08/07 04:00:30;;;;;;;2.50;1.50;;;;;21.90;100066.00;;;;2065327;28;20460;-56
2023/08/07 04:01:30;;;;;;;2.10;1.57;;;;;21.90;100061.00;;;;2069319;28;20240;-56
2023/08/07 04:02:30;;;;;;;2.53;1.70;;;;;21.90;100060.00;;;;2069934;28;20214;-56
2023/08/07 04:03:31;;;;;;;3.13;1.77;;;;;21.90;100068.00;;;;2059689;28;20218;-55
2023/08/07 04:04:31;;;;;;;3.00;1.80;;;;;21.90;100050.00;;;;2073897;28;20530;-57
2023/08/07 04:05:33;;;;;;;4.80;2.33;;;;;21.90;100056.00;;;;2069079;28;20814;-58
2023/08/07 04:06:33;;;;;;;3.28;1.98;;;;;21.90;100051.00;;;;2069043;28;20215;-56
2023/08/07 04:07:34;;;;;;;3.70;2.47;;;;;21.90;100056.00;;;;2069235;28;20214;-56
2023/08/07 04:08:35;;;;;;;3.78;1.70;;;;;21.90;100052.00;;;;2058275;28;20222;-56
2023/08/07 04:09:35;;;;;;;4.23;1.90;;;;;21.90;100059.00;;;;2069328;28;20214;-57
2023/08/07 04:10:36;;;;;;;2.93;1.87;;;;;21.90;100057.00;;;;2069793;28;20301;-58
2023/08/07 04:11:36;;;;;;;3.13;1.73;;;;;21.90;100063.00;;;;2076976;28;20225;-56
2023/08/07 04:12:37;;;;;;;2.53;2.00;;;;;21.90;100063.00;;;;2069580;28;20210;-55
2023/08/07 04:13:37;;;;;;;3.00;1.97;;;;;21.90;100061.00;;;;2057834;28;20241;-56
2023/08/07 04:14:38;;;;;;;2.90;1.70;;;;;21.90;100067.00;;;;2061061;28;20227;-57
2023/08/07 04:15:38;;;;;;;2.40;1.93;;;;;21.90;100055.00;;;;2068314;28;20209;-57
2023/08/07 04:16:38;;;;;;;4.20;2.03;;;;;21.90;100050.00;;;;2069619;28;20317;-57
2023/08/07 04:17:39;;;;;;;5.27;2.33;;;;;21.90;100055.00;;;;2068070;28;20217;-57
2023/08/07 04:18:39;;;;;;;2.60;2.17;;;;;21.90;100055.00;;;;2058396;28;20238;-57
2023/08/07 04:19:39;;;;;;;2.80;2.27;;;;;21.90;100063.00;;;;2068363;28;20214;-57
2023/08/07 04:20:40;;;;;;;4.53;2.00;;;;;21.90;100069.00;;;;2068015;28;20217;-57
2023/08/07 04:21:40;;;;;;;3.53;2.07;;;;;21.90;100063.00;;;;2068754;28;20202;-57
2023/08/07 04:22:40;;;;;;;3.43;2.20;;;;;21.90;100063.00;;;;2067107;28;20289;-57
2023/08/07 04:23:41;;;;;;;3.63;2.20;;;;;21.90;100063.00;;;;2057424;28;20219;-57
2023/08/07 04:24:41;;;;;;;4.17;2.07;;;;;21.90;100064.00;;;;2067611;28;20229;-57
2023/08/07 04:25:41;;;;;;;3.87;2.23;;;;;21.90;100068.00;;;;2069489;28;20306;-57
2023/08/07 04:26:42;;;;;;;3.20;2.10;;;;;21.90;100070.00;;;;2069382;28;20222;-57
2023/08/07 04:27:42;;;;;;;6.53;2.30;;;;;21.90;100066.00;;;;2067836;28;20218;-57
2023/08/07 04:28:42;;;;;;;3.50;1.97;;;;;21.90;100064.00;;;;2058298;28;20255;-57
2023/08/07 04:29:43;;;;;;;3.33;2.23;;;;;21.90;100081.00;;;;2069284;28;20230;-57
2023/08/07 04:30:43;;;;;;;3.30;2.20;;;;;21.90;100080.00;;;;2070140;28;20548;-57
2023/08/07 04:31:44;;;;;;;4.43;2.20;;;;;21.90;100085.00;;;;2067663;28;20296;-56
2023/08/07 04:32:44;;;;;;;2.80;2.07;;;;;21.90;100077.00;;;;2068389;28;20714;-57
2023/08/07 04:33:44;;;;;;;4.20;1.97;;;;;21.90;100084.00;;;;2058934;28;20725;-57
2023/08/07 04:34:45;;;;;;;4.50;2.57;;;;;21.90;100076.00;;;;2066694;28;20590;-57
2023/08/07 04:35:46;;;;;;;2.30;1.83;;;;;21.90;100076.00;;;;2068933;28;20275;-57
2023/08/07 04:36:47;;;;;;;2.60;1.92;;;;;21.80;100078.00;;;;2060188;28;20269;-57
2023/08/07 04:37:47;;;;;;;3.77;2.10;;;;;21.90;100076.00;;;;2068293;28;20629;-57
2023/08/07 04:38:47;;;;;;;3.00;1.90;;;;;21.90;100064.00;;;;2059071;28;20230;-57
2023/08/07 04:39:47;;;;;;;3.37;2.00;;;;;21.90;100068.00;;;;2067733;28;20211;-57
2023/08/07 04:40:49;;;;;;;3.27;2.10;;;;;21.90;100065.00;;;;2060402;28;20277;-57
2023/08/07 04:41:50;;;;;;;3.35;2.42;;;;;21.90;100060.00;;;;2068748;28;20207;-56
2023/08/07 04:42:50;;;;;;;4.87;1.70;;;;;21.90;100070.00;;;;2068193;28;20353;-57
2023/08/07 04:43:50;;;;;;;3.30;1.77;;;;;21.90;100067.00;;;;2061683;28;20469;-57
2023/08/07 04:44:51;;;;;;;3.40;2.17;;;;;21.90;100075.00;;;;2077140;28;21569;-57
2023/08/07 04:45:51;;;;;;;4.40;2.23;;;;;21.90;100079.00;;;;2071654;28;20218;-57
2023/08/07 04:46:52;;;;;;;4.47;2.27;;;;;21.90;100068.00;;;;2069209;28;20365;-57
2023/08/07 04:47:52;;;;;;;2.47;1.90;;;;;21.90;100081.00;;;;2068743;28;20218;-57
2023/08/07 04:48:54;;;;;;;4.87;2.50;;;;;21.80;100081.00;;;;2058891;28;20466;-57
2023/08/07 04:49:54;;;;;;;3.83;2.15;;;;;21.90;100081.00;;;;2069505;28;20222;-57
2023/08/07 04:50:55;;;;;;;3.40;2.13;;;;;21.90;100084.00;;;;2068541;28;20234;-57
2023/08/07 04:51:56;;;;;;;4.40;1.95;;;;;21.90;100076.00;;;;2069612;28;20257;-57
2023/08/07 04:52:56;;;;;;;4.37;2.47;;;;;21.90;100086.00;;;;2068504;28;20218;-57
2023/08/07 04:53:56;;;;;;;2.70;2.00;;;;;21.90;100086.00;;;;2059563;28;20214;-57
2023/08/07 04:54:57;;;;;;;3.60;2.30;;;;;21.90;100081.00;;;;2060518;28;20246;-57
2023/08/07 04:55:59;;;;;;;4.10;2.03;;;;;21.90;100078.00;;;;2068986;28;20717;-57
2023/08/07 04:56:59;;;;;;;3.28;1.73;;;;;21.90;100078.00;;;;2068122;28;20222;-57
2023/08/07 04:58:00;;;;;;;2.53;1.83;;;;;21.80;100076.00;;;;2068049;28;20661;-57
2023/08/07 04:59:01;;;;;;;4.50;2.40;;;;;21.90;100083.00;;;;2059902;28;20254;-56
2023/08/07 05:00:02;;;;;;;3.92;2.10;;;;;21.90;100081.00;;;;2053110;28;20219;-56
2023/08/07 05:01:03;;;;;;;3.13;1.97;;;;;21.90;100080.00;;;;2072922;28;20225;-56
2023/08/07 05:02:03;;;;;;;2.85;1.80;;;;;21.80;100076.00;;;;2072237;28;20229;-56